sensor_id;sensor_type;location;lat;lon;timestamp;temperature;humidity
20041;DHT22;10181;48.072;9.884;2022-10-16T00:01:27;12.30;99.90
20041;DHT22;10181;48.072;9.884;2022-10-16T00:03:53;12.30;99.90
20041;DHT22;10181;48.072;9.884;2022-10-16T00:06:20;12.30;99.90
20041;DHT22;10181;48.072;9.884;2022-10-16T00:08:47;12.40;99.90
20041;DHT22;10181;48.072;9.884;2022-10-16T00:11:22;12.40;99.90
20041;DHT22;10181;48.072;9.884;2022-10-16T00:13:50;12.40;99.90
20041;DHT22;10181;48.072;9.884;2022-10-16T00:16:16;12.40;99.90
20041;DHT22;10181;48.072;9.884;2022-10-16T00:18:42;12.40;99.90
20041;DHT22;10181;48.072;9.884;2022-10-16T00:21:12;12.40;99.90
20041;DHT22;10181;48.072;9.884;2022-10-16T00:23:38;12.40;99.90
20041;DHT22;10181;48.072;9.884;2022-10-16T00:26:06;12.40;99.90
20041;DHT22;10181;48.072;9.884;2022-10-16T00:28:33;12.40;99.90
20041;DHT22;10181;48.072;9.884;2022-10-16T00:30:59;12.40;99.90
20041;DHT22;10181;48.072;9.884;2022-10-16T00:33:25;12.40;99.90
20041;DHT22;10181;48.072;9.884;2022-10-16T00:35:51;12.40;99.90
20041;DHT22;10181;48.072;9.884;2022-10-16T00:38:16;12.40;99.90
20041;DHT22;10181;48.072;9.884;2022-10-16T00:40:42;12.40;99.90
20041;DHT22;10181;48.072;9.884;2022-10-16T00:46:08;12.40;99.90
20041;DHT22;10181;48.072;9.884;2022-10-16T00:48:36;12.40;99.90
20041;DHT22;10181;48.072;9.884;2022-10-16T00:51:02;12.40;99.90
20041;DHT22;10181;48.072;9.884;2022-10-16T00:53:29;12.40;99.90
20041;DHT22;10181;48.072;9.884;2022-10-16T00:55:55;12.50;99.90
20041;DHT22;10181;48.072;9.884;2022-10-16T00:58:21;12.50;99.90
20041;DHT22;10181;48.072;9.884;2022-10-16T01:00:47;12.60;99.90
20041;DHT22;10181;48.072;9.884;2022-10-16T01:03:29;12.70;99.90
20041;DHT22;10181;48.072;9.884;2022-10-16T01:06:23;12.70;99.90
20041;DHT22;10181;48.072;9.884;2022-10-16T01:12:00;12.80;99.90
20041;DHT22;10181;48.072;9.884;2022-10-16T01:14:30;12.80;99.90
20041;DHT22;10181;48.072;9.884;2022-10-16T01:17:16;12.90;99.90
20041;DHT22;10181;48.072;9.884;2022-10-16T01:25:11;13.00;99.90
20041;DHT22;10181;48.072;9.884;2022-10-16T01:27:40;13.10;99.90
20041;DHT22;10181;48.072;9.884;2022-10-16T01:30:15;13.20;99.90
20041;DHT22;10181;48.072;9.884;2022-10-16T01:33:08;13.20;99.90
20041;DHT22;10181;48.072;9.884;2022-10-16T01:35:39;13.30;99.90
20041;DHT22;10181;48.072;9.884;2022-10-16T01:38:21;13.30;99.90
20041;DHT22;10181;48.072;9.884;2022-10-16T01:40:58;13.40;99.90
20041;DHT22;10181;48.072;9.884;2022-10-16T01:43:28;13.40;99.90
20041;DHT22;10181;48.072;9.884;2022-10-16T01:45:57;13.50;99.90
20041;DHT22;10181;48.072;9.884;2022-10-16T01:48:24;13.60;99.90
20041;DHT22;10181;48.072;9.884;2022-10-16T01:51:03;13.60;99.90
20041;DHT22;10181;48.072;9.884;2022-10-16T01:53:30;13.70;99.90
20041;DHT22;10181;48.072;9.884;2022-10-16T01:55:58;13.70;99.90
20041;DHT22;10181;48.072;9.884;2022-10-16T01:58:25;13.70;99.90
20041;DHT22;10181;48.072;9.884;2022-10-16T02:00:53;13.60;99.90
20041;DHT22;10181;48.072;9.884;2022-10-16T02:03:20;13.60;99.90
20041;DHT22;10181;48.072;9.884;2022-10-16T02:05:51;13.60;99.90
20041;DHT22;10181;48.072;9.884;2022-10-16T02:08:18;13.70;99.90
20041;DHT22;10181;48.072;9.884;2022-10-16T02:10:44;13.70;99.90
20041;DHT22;10181;48.072;9.884;2022-10-16T02:13:13;13.70;99.90
20041;DHT22;10181;48.072;9.884;2022-10-16T02:15:40;13.70;99.90
20041;DHT22;10181;48.072;9.884;2022-10-16T02:18:07;13.70;99.90
20041;DHT22;10181;48.072;9.884;2022-10-16T02:20:38;13.70;99.90
20041;DHT22;10181;48.072;9.884;2022-10-16T02:23:08;13.70;99.90
20041;DHT22;10181;48.072;9.884;2022-10-16T02:25:40;13.70;99.90
20041;DHT22;10181;48.072;9.884;2022-10-16T02:28:10;13.80;99.90
20041;DHT22;10181;48.072;9.884;2022-10-16T02:30:39;13.90;99.90
20041;DHT22;10181;48.072;9.884;2022-10-16T02:33:08;13.90;99.90
20041;DHT22;10181;48.072;9.884;2022-10-16T02:35:35;13.90;99.90
20041;DHT22;10181;48.072;9.884;2022-10-16T02:38:02;13.90;99.90
20041;DHT22;10181;48.072;9.884;2022-10-16T02:40:28;14.00;99.90
20041;DHT22;10181;48.072;9.884;2022-10-16T02:42:55;14.00;99.90
20041;DHT22;10181;48.072;9.884;2022-10-16T02:45:21;14.00;99.90
20041;DHT22;10181;48.072;9.884;2022-10-16T02:47:47;14.00;99.90
20041;DHT22;10181;48.072;9.884;2022-10-16T02:50:13;14.00;99.90
20041;DHT22;10181;48.072;9.884;2022-10-16T02:52:39;14.00;99.90
20041;DHT22;10181;48.072;9.884;2022-10-16T02:55:05;14.00;99.90
20041;DHT22;10181;48.072;9.884;2022-10-16T02:57:31;14.00;99.90
20041;DHT22;10181;48.072;9.884;2022-10-16T02:59:57;14.00;99.90
20041;DHT22;10181;48.072;9.884;2022-10-16T03:02:23;14.00;99.90
20041;DHT22;10181;48.072;9.884;2022-10-16T03:04:48;14.10;99.90
20041;DHT22;10181;48.072;9.884;2022-10-16T03:07:14;14.10;99.90
20041;DHT22;10181;48.072;9.884;2022-10-16T03:09:39;14.10;99.90
20041;DHT22;10181;48.072;9.884;2022-10-16T03:12:05;14.20;99.90
20041;DHT22;10181;48.072;9.884;2022-10-16T03:14:31;14.10;99.90
20041;DHT22;10181;48.072;9.884;2022-10-16T03:16:56;14.10;99.90
20041;DHT22;10181;48.072;9.884;2022-10-16T03:19:22;14.00;99.90
20041;DHT22;10181;48.072;9.884;2022-10-16T03:21:48;14.00;99.90
20041;DHT22;10181;48.072;9.884;2022-10-16T03:24:13;13.90;99.90
20041;DHT22;10181;48.072;9.884;2022-10-16T03:26:39;13.90;99.90
20041;DHT22;10181;48.072;9.884;2022-10-16T03:29:05;13.80;99.90
20041;DHT22;10181;48.072;9.884;2022-10-16T03:31:32;13.70;99.90
20041;DHT22;10181;48.072;9.884;2022-10-16T03:33:57;13.70;99.90
20041;DHT22;10181;48.072;9.884;2022-10-16T03:36:23;13.60;99.90
20041;DHT22;10181;48.072;9.884;2022-10-16T03:38:49;13.50;99.90
20041;DHT22;10181;48.072;9.884;2022-10-16T03:41:14;13.40;99.90
20041;DHT22;10181;48.072;9.884;2022-10-16T03:43:40;13.40;99.90
20041;DHT22;10181;48.072;9.884;2022-10-16T03:46:05;13.30;99.90
20041;DHT22;10181;48.072;9.884;2022-10-16T03:48:31;13.20;99.90
20041;DHT22;10181;48.072;9.884;2022-10-16T03:50:57;13.10;99.90
20041;DHT22;10181;48.072;9.884;2022-10-16T03:53:23;13.00;99.90
20041;DHT22;10181;48.072;9.884;2022-10-16T03:55:49;13.00;99.90
20041;DHT22;10181;48.072;9.884;2022-10-16T03:58:15;13.00;99.90
20041;DHT22;10181;48.072;9.884;2022-10-16T04:00:45;12.90;99.90
20041;DHT22;10181;48.072;9.884;2022-10-16T04:03:11;12.90;99.90
20041;DHT22;10181;48.072;9.884;2022-10-16T04:05:36;12.80;99.90
20041;DHT22;10181;48.072;9.884;2022-10-16T04:08:02;12.80;99.90
20041;DHT22;10181;48.072;9.884;2022-10-16T04:10:28;12.80;99.90
20041;DHT22;10181;48.072;9.884;2022-10-16T04:12:54;12.80;99.90
20041;DHT22;10181;48.072;9.884;2022-10-16T04:15:24;12.80;99.90
20041;DHT22;10181;48.072;9.884;2022-10-16T04:17:50;12.70;99.90
20041;DHT22;10181;48.072;9.884;2022-10-16T04:20:16;12.70;99.90
20041;DHT22;10181;48.072;9.884;2022-10-16T04:22:41;12.70;99.90
20041;DHT22;10181;48.072;9.884;2022-10-16T04:25:07;12.60;99.90
20041;DHT22;10181;48.072;9.884;2022-10-16T04:27:33;12.70;99.90
20041;DHT22;10181;48.072;9.884;2022-10-16T04:30:00;12.70;99.90
20041;DHT22;10181;48.072;9.884;2022-10-16T04:32:26;12.80;99.90
20041;DHT22;10181;48.072;9.884;2022-10-16T04:34:52;12.80;99.90
20041;DHT22;10181;48.072;9.884;2022-10-16T04:37:18;12.80;99.90
20041;DHT22;10181;48.072;9.884;2022-10-16T04:39:44;12.70;99.90
20041;DHT22;10181;48.072;9.884;2022-10-16T04:42:10;12.70;99.90
20041;DHT22;10181;48.072;9.884;2022-10-16T04:44:36;12.70;99.90
20041;DHT22;10181;48.072;9.884;2022-10-16T04:47:02;12.70;99.90
20041;DHT22;10181;48.072;9.884;2022-10-16T04:49:27;12.60;99.90
20041;DHT22;10181;48.072;9.884;2022-10-16T04:51:53;12.60;99.90
20041;DHT22;10181;48.072;9.884;2022-10-16T04:54:19;12.60;99.90
20041;DHT22;10181;48.072;9.884;2022-10-16T04:56:44;12.60;99.90
20041;DHT22;10181;48.072;9.884;2022-10-16T04:59:14;12.50;99.90
20041;DHT22;10181;48.072;9.884;2022-10-16T05:01:40;12.50;99.90
20041;DHT22;10181;48.072;9.884;2022-10-16T05:04:05;12.50;99.90
20041;DHT22;10181;48.072;9.884;2022-10-16T05:06:31;12.40;99.90
20041;DHT22;10181;48.072;9.884;2022-10-16T05:08:56;12.40;99.90
20041;DHT22;10181;48.072;9.884;2022-10-16T05:11:22;12.40;99.90
20041;DHT22;10181;48.072;9.884;2022-10-16T05:13:47;12.30;99.90
20041;DHT22;10181;48.072;9.884;2022-10-16T05:16:13;12.30;99.90
20041;DHT22;10181;48.072;9.884;2022-10-16T05:18:39;12.30;99.90
20041;DHT22;10181;48.072;9.884;2022-10-16T05:21:04;12.20;99.90
20041;DHT22;10181;48.072;9.884;2022-10-16T05:23:31;12.10;99.90
20041;DHT22;10181;48.072;9.884;2022-10-16T05:25:58;12.10;99.90
20041;DHT22;10181;48.072;9.884;2022-10-16T05:28:25;12.10;99.90
20041;DHT22;10181;48.072;9.884;2022-10-16T05:30:51;12.00;99.90
20041;DHT22;10181;48.072;9.884;2022-10-16T05:33:21;12.00;99.90
20041;DHT22;10181;48.072;9.884;2022-10-16T05:35:47;11.90;99.90
20041;DHT22;10181;48.072;9.884;2022-10-16T05:38:13;11.90;99.90
20041;DHT22;10181;48.072;9.884;2022-10-16T05:40:39;11.90;99.90
20041;DHT22;10181;48.072;9.884;2022-10-16T05:43:04;11.90;99.90
20041;DHT22;10181;48.072;9.884;2022-10-16T05:45:30;11.90;99.90
20041;DHT22;10181;48.072;9.884;2022-10-16T05:47:56;11.90;99.90
20041;DHT22;10181;48.072;9.884;2022-10-16T05:50:21;11.90;99.90
20041;DHT22;10181;48.072;9.884;2022-10-16T05:52:47;11.90;99.90
20041;DHT22;10181;48.072;9.884;2022-10-16T05:55:12;11.80;99.90
20041;DHT22;10181;48.072;9.884;2022-10-16T05:57:38;11.80;99.90
20041;DHT22;10181;48.072;9.884;2022-10-16T06:00:04;11.80;99.90
20041;DHT22;10181;48.072;9.884;2022-10-16T06:02:30;11.80;99.90
20041;DHT22;10181;48.072;9.884;2022-10-16T06:04:56;11.80;99.90
20041;DHT22;10181;48.072;9.884;2022-10-16T06:07:22;11.90;99.90
20041;DHT22;10181;48.072;9.884;2022-10-16T06:09:52;11.90;99.90
20041;DHT22;10181;48.072;9.884;2022-10-16T06:12:18;11.90;99.90
20041;DHT22;10181;48.072;9.884;2022-10-16T06:14:45;11.90;99.90
20041;DHT22;10181;48.072;9.884;2022-10-16T06:17:13;11.90;99.90
20041;DHT22;10181;48.072;9.884;2022-10-16T06:19:39;12.00;99.90
20041;DHT22;10181;48.072;9.884;2022-10-16T06:22:04;12.00;99.90
20041;DHT22;10181;48.072;9.884;2022-10-16T06:24:30;12.00;99.90
20041;DHT22;10181;48.072;9.884;2022-10-16T06:26:56;12.10;99.90
20041;DHT22;10181;48.072;9.884;2022-10-16T06:29:21;12.10;99.90
20041;DHT22;10181;48.072;9.884;2022-10-16T06:31:47;12.10;99.90
20041;DHT22;10181;48.072;9.884;2022-10-16T06:34:13;12.20;99.90
20041;DHT22;10181;48.072;9.884;2022-10-16T06:36:38;12.20;99.90
20041;DHT22;10181;48.072;9.884;2022-10-16T06:39:05;12.30;99.90
20041;DHT22;10181;48.072;9.884;2022-10-16T06:41:33;12.30;99.90
20041;DHT22;10181;48.072;9.884;2022-10-16T06:43:59;12.40;99.90
20041;DHT22;10181;48.072;9.884;2022-10-16T06:46:26;12.40;99.90
20041;DHT22;10181;48.072;9.884;2022-10-16T06:48:52;12.40;99.90
20041;DHT22;10181;48.072;9.884;2022-10-16T06:51:23;12.50;99.90
20041;DHT22;10181;48.072;9.884;2022-10-16T06:53:54;12.60;99.90
20041;DHT22;10181;48.072;9.884;2022-10-16T06:56:27;12.60;99.90
20041;DHT22;10181;48.072;9.884;2022-10-16T06:58:53;12.70;99.90
20041;DHT22;10181;48.072;9.884;2022-10-16T07:01:21;12.70;99.90
20041;DHT22;10181;48.072;9.884;2022-10-16T07:03:48;12.80;99.90
20041;DHT22;10181;48.072;9.884;2022-10-16T07:06:15;12.80;99.90
20041;DHT22;10181;48.072;9.884;2022-10-16T07:08:43;12.80;99.90
20041;DHT22;10181;48.072;9.884;2022-10-16T07:11:12;12.90;99.90
20041;DHT22;10181;48.072;9.884;2022-10-16T07:13:40;12.90;99.90
20041;DHT22;10181;48.072;9.884;2022-10-16T07:16:10;13.00;99.90
20041;DHT22;10181;48.072;9.884;2022-10-16T07:18:36;13.00;99.90
20041;DHT22;10181;48.072;9.884;2022-10-16T07:21:18;13.10;99.90
20041;DHT22;10181;48.072;9.884;2022-10-16T07:23:44;13.10;99.90
20041;DHT22;10181;48.072;9.884;2022-10-16T07:26:10;13.20;99.90
20041;DHT22;10181;48.072;9.884;2022-10-16T07:28:36;13.30;99.90
20041;DHT22;10181;48.072;9.884;2022-10-16T07:31:06;13.40;99.90
20041;DHT22;10181;48.072;9.884;2022-10-16T07:33:34;13.40;99.90
20041;DHT22;10181;48.072;9.884;2022-10-16T07:36:00;13.60;99.90
20041;DHT22;10181;48.072;9.884;2022-10-16T07:38:26;13.70;99.90
20041;DHT22;10181;48.072;9.884;2022-10-16T07:40:59;13.90;99.90
20041;DHT22;10181;48.072;9.884;2022-10-16T07:43:26;14.00;99.90
20041;DHT22;10181;48.072;9.884;2022-10-16T07:45:52;14.10;99.90
20041;DHT22;10181;48.072;9.884;2022-10-16T07:48:17;14.30;99.90
20041;DHT22;10181;48.072;9.884;2022-10-16T07:50:44;14.40;99.90
20041;DHT22;10181;48.072;9.884;2022-10-16T07:53:14;14.70;99.90
20041;DHT22;10181;48.072;9.884;2022-10-16T07:55:41;14.90;99.90
20041;DHT22;10181;48.072;9.884;2022-10-16T07:58:07;15.10;99.90
20041;DHT22;10181;48.072;9.884;2022-10-16T08:00:33;15.30;99.90
20041;DHT22;10181;48.072;9.884;2022-10-16T08:02:59;15.50;99.90
20041;DHT22;10181;48.072;9.884;2022-10-16T08:05:30;15.70;99.90
20041;DHT22;10181;48.072;9.884;2022-10-16T08:07:56;15.80;99.90
20041;DHT22;10181;48.072;9.884;2022-10-16T08:10:24;15.90;99.90
20041;DHT22;10181;48.072;9.884;2022-10-16T08:12:51;16.00;99.90
20041;DHT22;10181;48.072;9.884;2022-10-16T08:15:17;16.10;99.90
20041;DHT22;10181;48.072;9.884;2022-10-16T08:17:42;16.30;99.90
20041;DHT22;10181;48.072;9.884;2022-10-16T08:20:09;16.40;99.90
20041;DHT22;10181;48.072;9.884;2022-10-16T08:22:34;16.40;99.90
20041;DHT22;10181;48.072;9.884;2022-10-16T08:25:00;16.50;99.90
20041;DHT22;10181;48.072;9.884;2022-10-16T08:27:33;16.60;99.90
20041;DHT22;10181;48.072;9.884;2022-10-16T08:29:59;16.70;99.90
20041;DHT22;10181;48.072;9.884;2022-10-16T08:32:25;16.70;99.90
20041;DHT22;10181;48.072;9.884;2022-10-16T08:34:50;16.80;99.90
20041;DHT22;10181;48.072;9.884;2022-10-16T08:37:16;16.90;99.90
20041;DHT22;10181;48.072;9.884;2022-10-16T08:39:41;16.90;99.90
20041;DHT22;10181;48.072;9.884;2022-10-16T08:45:11;17.00;99.90
20041;DHT22;10181;48.072;9.884;2022-10-16T08:50:29;17.10;99.90
20041;DHT22;10181;48.072;9.884;2022-10-16T08:52:55;17.10;99.90
20041;DHT22;10181;48.072;9.884;2022-10-16T08:55:38;17.10;99.90
20041;DHT22;10181;48.072;9.884;2022-10-16T08:58:15;17.20;99.90
20041;DHT22;10181;48.072;9.884;2022-10-16T09:00:43;17.20;99.90
20041;DHT22;10181;48.072;9.884;2022-10-16T09:06:08;17.30;99.90
20041;DHT22;10181;48.072;9.884;2022-10-16T09:09:27;17.30;99.90
20041;DHT22;10181;48.072;9.884;2022-10-16T09:11:51;17.30;99.90
20041;DHT22;10181;48.072;9.884;2022-10-16T09:22:42;17.80;99.90
20041;DHT22;10181;48.072;9.884;2022-10-16T09:25:20;17.80;99.90
20041;DHT22;10181;48.072;9.884;2022-10-16T09:27:48;17.90;99.90
20041;DHT22;10181;48.072;9.884;2022-10-16T09:30:17;17.90;99.90
20041;DHT22;10181;48.072;9.884;2022-10-16T09:32:45;18.00;99.90
20041;DHT22;10181;48.072;9.884;2022-10-16T09:35:31;18.10;99.90
20041;DHT22;10181;48.072;9.884;2022-10-16T09:37:58;18.10;99.90
20041;DHT22;10181;48.072;9.884;2022-10-16T09:40:38;18.20;99.90
20041;DHT22;10181;48.072;9.884;2022-10-16T09:43:32;18.20;99.90
20041;DHT22;10181;48.072;9.884;2022-10-16T09:46:03;18.20;99.90
20041;DHT22;10181;48.072;9.884;2022-10-16T09:48:48;18.20;99.90
20041;DHT22;10181;48.072;9.884;2022-10-16T09:51:24;18.30;99.90
20041;DHT22;10181;48.072;9.884;2022-10-16T09:54:16;18.40;99.90
20041;DHT22;10181;48.072;9.884;2022-10-16T09:56:40;18.50;99.90
20041;DHT22;10181;48.072;9.884;2022-10-16T09:59:13;18.60;99.90
20041;DHT22;10181;48.072;9.884;2022-10-16T10:01:46;18.70;99.90
20041;DHT22;10181;48.072;9.884;2022-10-16T10:04:12;18.80;99.90
20041;DHT22;10181;48.072;9.884;2022-10-16T10:06:53;19.00;99.90
20041;DHT22;10181;48.072;9.884;2022-10-16T10:09:43;19.10;99.90
20041;DHT22;10181;48.072;9.884;2022-10-16T10:12:29;19.20;99.90
20041;DHT22;10181;48.072;9.884;2022-10-16T10:15:27;19.30;99.90
20041;DHT22;10181;48.072;9.884;2022-10-16T10:17:54;19.40;99.90
20041;DHT22;10181;48.072;9.884;2022-10-16T10:22:51;19.40;99.90
20041;DHT22;10181;48.072;9.884;2022-10-16T10:31:06;19.50;99.90
20041;DHT22;10181;48.072;9.884;2022-10-16T10:36:40;19.50;99.90
20041;DHT22;10181;48.072;9.884;2022-10-16T10:39:24;19.50;99.90
20041;DHT22;10181;48.072;9.884;2022-10-16T10:58:05;20.00;99.90
20041;DHT22;10181;48.072;9.884;2022-10-16T11:00:51;20.20;99.90
20041;DHT22;10181;48.072;9.884;2022-10-16T11:03:38;20.30;99.90
20041;DHT22;10181;48.072;9.884;2022-10-16T11:06:15;20.40;99.90
20041;DHT22;10181;48.072;9.884;2022-10-16T11:08:50;20.60;99.90
20041;DHT22;10181;48.072;9.884;2022-10-16T11:11:36;20.60;99.90
20041;DHT22;10181;48.072;9.884;2022-10-16T11:14:05;20.60;99.90
20041;DHT22;10181;48.072;9.884;2022-10-16T11:22:18;20.70;99.90
20041;DHT22;10181;48.072;9.884;2022-10-16T11:25:30;20.70;99.90
20041;DHT22;10181;48.072;9.884;2022-10-16T11:30:25;20.90;99.90
20041;DHT22;10181;48.072;9.884;2022-10-16T11:35:45;21.30;99.90
20041;DHT22;10181;48.072;9.884;2022-10-16T11:38:30;21.50;99.90
20041;DHT22;10181;48.072;9.884;2022-10-16T11:41:15;21.80;99.90
20041;DHT22;10181;48.072;9.884;2022-10-16T11:46:24;22.20;99.90
20041;DHT22;10181;48.072;9.884;2022-10-16T11:49:00;22.50;99.90
20041;DHT22;10181;48.072;9.884;2022-10-16T11:51:39;22.60;99.90
20041;DHT22;10181;48.072;9.884;2022-10-16T11:54:18;22.80;99.90
20041;DHT22;10181;48.072;9.884;2022-10-16T11:56:48;22.90;99.90
20041;DHT22;10181;48.072;9.884;2022-10-16T12:04:41;23.60;99.90
20041;DHT22;10181;48.072;9.884;2022-10-16T12:07:19;23.70;99.90
20041;DHT22;10181;48.072;9.884;2022-10-16T12:09:46;23.90;99.90
20041;DHT22;10181;48.072;9.884;2022-10-16T12:12:47;24.00;99.90
20041;DHT22;10181;48.072;9.884;2022-10-16T12:17:46;24.20;99.90
20041;DHT22;10181;48.072;9.884;2022-10-16T12:22:47;24.30;99.90
20041;DHT22;10181;48.072;9.884;2022-10-16T12:25:26;24.30;99.90
20041;DHT22;10181;48.072;9.884;2022-10-16T12:28:01;24.30;99.90
20041;DHT22;10181;48.072;9.884;2022-10-16T12:30:30;24.30;99.90
20041;DHT22;10181;48.072;9.884;2022-10-16T12:32:58;24.30;99.90
20041;DHT22;10181;48.072;9.884;2022-10-16T12:35:28;24.20;99.90
20041;DHT22;10181;48.072;9.884;2022-10-16T12:38:08;24.10;99.90
20041;DHT22;10181;48.072;9.884;2022-10-16T12:40:38;23.80;99.90
20041;DHT22;10181;48.072;9.884;2022-10-16T12:51:40;22.90;99.90
20041;DHT22;10181;48.072;9.884;2022-10-16T12:54:18;22.80;99.90
20041;DHT22;10181;48.072;9.884;2022-10-16T13:10:26;22.90;99.90
20041;DHT22;10181;48.072;9.884;2022-10-16T13:18:42;22.80;99.90
20041;DHT22;10181;48.072;9.884;2022-10-16T13:24:11;22.60;99.90
20041;DHT22;10181;48.072;9.884;2022-10-16T13:29:04;22.40;99.90
20041;DHT22;10181;48.072;9.884;2022-10-16T13:31:31;22.30;99.90
20041;DHT22;10181;48.072;9.884;2022-10-16T13:33:59;22.30;99.90
20041;DHT22;10181;48.072;9.884;2022-10-16T13:36:27;22.30;99.90
20041;DHT22;10181;48.072;9.884;2022-10-16T13:41:37;22.20;99.90
20041;DHT22;10181;48.072;9.884;2022-10-16T13:44:03;22.20;99.90
20041;DHT22;10181;48.072;9.884;2022-10-16T13:46:29;22.20;99.90
20041;DHT22;10181;48.072;9.884;2022-10-16T13:49:05;22.20;99.90
20041;DHT22;10181;48.072;9.884;2022-10-16T13:51:32;22.10;99.90
20041;DHT22;10181;48.072;9.884;2022-10-16T13:53:58;22.10;99.90
20041;DHT22;10181;48.072;9.884;2022-10-16T13:56:29;22.10;99.90
20041;DHT22;10181;48.072;9.884;2022-10-16T13:59:03;22.00;99.90
20041;DHT22;10181;48.072;9.884;2022-10-16T14:01:50;22.00;99.90
20041;DHT22;10181;48.072;9.884;2022-10-16T14:04:17;21.90;99.90
20041;DHT22;10181;48.072;9.884;2022-10-16T14:06:45;21.90;99.90
20041;DHT22;10181;48.072;9.884;2022-10-16T14:09:26;21.80;99.90
20041;DHT22;10181;48.072;9.884;2022-10-16T14:12:01;21.80;99.90
20041;DHT22;10181;48.072;9.884;2022-10-16T14:14:43;21.70;99.90
20041;DHT22;10181;48.072;9.884;2022-10-16T14:17:38;21.60;99.90
20041;DHT22;10181;48.072;9.884;2022-10-16T14:20:14;21.60;99.90
20041;DHT22;10181;48.072;9.884;2022-10-16T14:22:42;21.60;99.90
20041;DHT22;10181;48.072;9.884;2022-10-16T14:30:26;21.50;99.90
20041;DHT22;10181;48.072;9.884;2022-10-16T14:33:01;21.40;99.90
20041;DHT22;10181;48.072;9.884;2022-10-16T14:35:35;21.40;99.90
20041;DHT22;10181;48.072;9.884;2022-10-16T14:38:02;21.30;99.90
20041;DHT22;10181;48.072;9.884;2022-10-16T14:40:35;21.20;99.90
20041;DHT22;10181;48.072;9.884;2022-10-16T14:43:02;21.20;99.90
20041;DHT22;10181;48.072;9.884;2022-10-16T14:45:31;21.20;99.90
20041;DHT22;10181;48.072;9.884;2022-10-16T14:48:14;21.10;99.90
20041;DHT22;10181;48.072;9.884;2022-10-16T14:50:42;21.10;99.90
20041;DHT22;10181;48.072;9.884;2022-10-16T14:53:11;21.10;99.90
20041;DHT22;10181;48.072;9.884;2022-10-16T14:55:38;21.00;99.90
20041;DHT22;10181;48.072;9.884;2022-10-16T14:58:04;21.00;99.90
20041;DHT22;10181;48.072;9.884;2022-10-16T15:00:30;21.00;99.90
20041;DHT22;10181;48.072;9.884;2022-10-16T15:02:56;20.90;99.90
20041;DHT22;10181;48.072;9.884;2022-10-16T15:05:26;20.90;99.90
20041;DHT22;10181;48.072;9.884;2022-10-16T15:07:54;20.90;99.90
20041;DHT22;10181;48.072;9.884;2022-10-16T15:10:22;20.90;99.90
20041;DHT22;10181;48.072;9.884;2022-10-16T15:12:48;20.80;99.90
20041;DHT22;10181;48.072;9.884;2022-10-16T15:17:53;20.70;99.90
20041;DHT22;10181;48.072;9.884;2022-10-16T15:20:21;20.70;99.90
20041;DHT22;10181;48.072;9.884;2022-10-16T15:22:47;20.60;99.90
20041;DHT22;10181;48.072;9.884;2022-10-16T15:25:37;20.50;99.90
20041;DHT22;10181;48.072;9.884;2022-10-16T15:28:04;20.50;99.90
20041;DHT22;10181;48.072;9.884;2022-10-16T15:30:30;20.40;99.90
20041;DHT22;10181;48.072;9.884;2022-10-16T15:32:56;20.30;99.90
20041;DHT22;10181;48.072;9.884;2022-10-16T15:35:21;20.30;99.90
20041;DHT22;10181;48.072;9.884;2022-10-16T15:37:48;20.20;99.90
20041;DHT22;10181;48.072;9.884;2022-10-16T15:40:14;20.10;99.90
20041;DHT22;10181;48.072;9.884;2022-10-16T15:42:40;20.00;99.90
20041;DHT22;10181;48.072;9.884;2022-10-16T15:45:06;20.00;99.90
20041;DHT22;10181;48.072;9.884;2022-10-16T15:47:32;19.90;99.90
20041;DHT22;10181;48.072;9.884;2022-10-16T15:49:57;19.90;99.90
20041;DHT22;10181;48.072;9.884;2022-10-16T15:52:23;19.80;99.90
20041;DHT22;10181;48.072;9.884;2022-10-16T15:54:49;19.70;99.90
20041;DHT22;10181;48.072;9.884;2022-10-16T15:57:14;19.60;99.90
20041;DHT22;10181;48.072;9.884;2022-10-16T15:59:40;19.50;99.90
20041;DHT22;10181;48.072;9.884;2022-10-16T16:02:07;19.40;99.90
20041;DHT22;10181;48.072;9.884;2022-10-16T16:04:33;19.30;99.90
20041;DHT22;10181;48.072;9.884;2022-10-16T16:06:59;19.20;99.90
20041;DHT22;10181;48.072;9.884;2022-10-16T16:09:24;19.10;99.90
20041;DHT22;10181;48.072;9.884;2022-10-16T16:11:50;19.00;99.90
20041;DHT22;10181;48.072;9.884;2022-10-16T16:14:17;18.90;99.90
20041;DHT22;10181;48.072;9.884;2022-10-16T16:16:43;18.80;99.90
20041;DHT22;10181;48.072;9.884;2022-10-16T16:19:09;18.80;99.90
20041;DHT22;10181;48.072;9.884;2022-10-16T16:21:34;18.70;99.90
20041;DHT22;10181;48.072;9.884;2022-10-16T16:24:00;18.60;99.90
20041;DHT22;10181;48.072;9.884;2022-10-16T16:26:27;18.40;99.90
20041;DHT22;10181;48.072;9.884;2022-10-16T16:28:54;18.30;99.90
20041;DHT22;10181;48.072;9.884;2022-10-16T16:31:24;18.20;99.90
20041;DHT22;10181;48.072;9.884;2022-10-16T16:33:49;18.10;99.90
20041;DHT22;10181;48.072;9.884;2022-10-16T16:36:16;17.90;99.90
20041;DHT22;10181;48.072;9.884;2022-10-16T16:38:44;17.80;99.90
20041;DHT22;10181;48.072;9.884;2022-10-16T16:41:14;17.70;99.90
20041;DHT22;10181;48.072;9.884;2022-10-16T16:43:40;17.50;99.90
20041;DHT22;10181;48.072;9.884;2022-10-16T16:46:05;17.40;99.90
20041;DHT22;10181;48.072;9.884;2022-10-16T16:48:32;17.20;99.90
20041;DHT22;10181;48.072;9.884;2022-10-16T16:51:24;17.10;99.90
20041;DHT22;10181;48.072;9.884;2022-10-16T16:53:51;17.00;99.90
20041;DHT22;10181;48.072;9.884;2022-10-16T16:56:19;16.80;99.90
20041;DHT22;10181;48.072;9.884;2022-10-16T16:58:46;16.70;99.90
20041;DHT22;10181;48.072;9.884;2022-10-16T17:01:12;16.50;99.90
20041;DHT22;10181;48.072;9.884;2022-10-16T17:03:37;16.40;99.90
20041;DHT22;10181;48.072;9.884;2022-10-16T17:06:07;16.20;99.90
20041;DHT22;10181;48.072;9.884;2022-10-16T17:08:34;16.00;99.90
20041;DHT22;10181;48.072;9.884;2022-10-16T17:11:00;15.90;99.90
20041;DHT22;10181;48.072;9.884;2022-10-16T17:13:33;15.90;99.90
20041;DHT22;10181;48.072;9.884;2022-10-16T17:16:04;15.80;99.90
20041;DHT22;10181;48.072;9.884;2022-10-16T17:18:31;15.70;99.90
20041;DHT22;10181;48.072;9.884;2022-10-16T17:21:01;15.50;99.90
20041;DHT22;10181;48.072;9.884;2022-10-16T17:23:27;15.50;99.90
20041;DHT22;10181;48.072;9.884;2022-10-16T17:25:53;15.30;99.90
20041;DHT22;10181;48.072;9.884;2022-10-16T17:28:19;15.30;99.90
20041;DHT22;10181;48.072;9.884;2022-10-16T17:30:44;15.20;99.90
20041;DHT22;10181;48.072;9.884;2022-10-16T17:33:11;15.10;99.90
20041;DHT22;10181;48.072;9.884;2022-10-16T17:35:45;15.00;99.90
20041;DHT22;10181;48.072;9.884;2022-10-16T17:38:13;14.90;99.90
20041;DHT22;10181;48.072;9.884;2022-10-16T17:40:39;14.90;99.90
20041;DHT22;10181;48.072;9.884;2022-10-16T17:43:05;14.80;99.90
20041;DHT22;10181;48.072;9.884;2022-10-16T17:45:31;14.70;99.90
20041;DHT22;10181;48.072;9.884;2022-10-16T17:48:00;14.70;99.90